Vg 117 Kungsvik — SBTH — position and weather

sailwx.info

Track history (hours):
 
Tides and Currents Weather Stations Pressure Air Temp Water Temp Dewpoint Dewpoint Depression Visibility Wind Speed Wind Dir Waves Ship Positions

Vg 117 Kungsvik

Last reported at 2015-Mar-29 00:30 UTC. Time now 2015-Mar-30 01:00 UTC.
Position N 55°33' E 014°22'.

Length 17 m.

Type: Fishing. MMSI: 266137000.

Date/timePositionNaut miles runAvg speedWind from/ knotsBaromVisibWave heightAir tempDewpointWater temp
2015-Mar-29 00:30N 55°33' E 014°22'0 0.0
2015-Mar-28 22:18N 55°33' E 014°22'0 0.0
2015-Mar-28 20:24N 55°33' E 014°22'0 0.0
2015-Mar-28 19:12N 55°33' E 014°22'0 0.0
2015-Mar-28 17:24N 55°33' E 014°22'0 0.0
2015-Mar-28 16:06N 55°33' E 014°22'0 0.0
2015-Mar-28 14:30N 55°33' E 014°22'0 0.0
2015-Mar-28 10:12N 55°33' E 014°22'0 0.0
2015-Mar-28 09:30N 55°33' E 014°22'0 0.0
2015-Mar-28 08:06N 55°33' E 014°22'0 0.0
2015-Mar-28 07:30N 55°33' E 014°22'0 0.0
2015-Mar-28 05:06N 55°33' E 014°22'0 0.0
2015-Mar-28 04:30N 55°33' E 014°22'0 0.0
2015-Mar-28 03:30N 55°33' E 014°22'0 0.0
2015-Mar-27 01:24N 55°33' E 014°22'0 0.0
2015-Mar-26 23:30N 55°33' E 014°22'0 0.0
2015-Mar-26 22:30N 55°33' E 014°22'0 0.0
2015-Mar-26 21:06N 55°33' E 014°22'0 0.0
2015-Mar-26 20:12N 55°33' E 014°22'0 0.0
2015-Mar-26 18:32N 55°33' E 014°22'0 0.0
2015-Mar-26 17:26N 55°33' E 014°22'0 0.0
2015-Mar-26 16:32N 55°33' E 014°22'0 0.0
2015-Mar-26 15:26N 55°33' E 014°22'0 0.0
2015-Mar-26 14:32N 55°33' E 014°22'0 0.0
2015-Mar-26 13:32N 55°33' E 014°22'0 0.0
2015-Mar-26 11:26N 55°33' E 014°22'0 0.0
2015-Mar-26 10:20N 55°33' E 014°22'0 0.0
2015-Mar-26 08:14N 55°33' E 014°22'0 0.0
2015-Mar-26 07:32N 55°33' E 014°22'0 0.0
2015-Mar-26 05:14N 55°33' E 014°22'0 0.0
2015-Mar-26 04:32N 55°33' E 014°22'0 0.0
2015-Mar-26 03:26N 55°33' E 014°22'0 0.0
2015-Mar-26 02:32N 55°33' E 014°22'0 0.0
2015-Mar-26 01:32N 55°33' E 014°22'0 0.0
2015-Mar-26 00:32N 55°33' E 014°22'0 0.0
2015-Mar-25 22:32N 55°33' E 014°22'0 0.0
2015-Mar-25 21:20N 55°33' E 014°22'0 0.0
2015-Mar-25 20:26N 55°33' E 014°22'0 0.0
2015-Mar-25 19:32N 55°33' E 014°22'0 0.0
2015-Mar-25 17:14N 55°33' E 014°22'0 0.0
2015-Mar-25 16:32N 55°33' E 014°22'0 0.0
2015-Mar-25 15:32N 55°33' E 014°22'0 0.0
2015-Mar-25 13:28N 55°33' E 014°21'2 2.2
2015-Mar-25 12:30N 55°32' E 014°23'5 5.2
2015-Mar-25 11:33N 55°27' E 014°22'7 7.1
2015-Mar-25 10:33N 55°20' E 014°19'7 6.7
2015-Mar-25 09:32N 55°13' E 014°20'2 2.1
2015-Mar-25 08:33N 55°11' E 014°21'3 2.7
2015-Mar-25 07:33N 55°11' E 014°16'0 0.4
2015-Mar-25 06:33N 55°11' E 014°16'3 2.8
2015-Mar-25 05:33N 55°11' E 014°21'4 4.5
2015-Mar-25 04:33N 55°10' E 014°29'7 6.9
2015-Mar-25 03:33N 55°11' E 014°41'1 0.9
2015-Mar-25 02:28N 55°11' E 014°42'0 0.0
2015-Mar-25 01:31N 55°11' E 014°42'0 0.0
2015-Mar-25 00:28N 55°11' E 014°42'0 0.0
2015-Mar-24 23:10N 55°11' E 014°42'0 0.0
2015-Mar-24 22:28N 55°11' E 014°42'0 0.0
2015-Mar-24 21:22N 55°11' E 014°42'0 0.0
2015-Mar-24 20:28N 55°11' E 014°42'2 1.8
2015-Mar-24 19:33N 55°11' E 014°39'6 6.1
2015-Mar-24 18:33N 55°11' E 014°29'6 5.1
2015-Mar-24 17:28N 55°11' E 014°19'1 1.4
2015-Mar-24 16:33N 55°11' E 014°17'3 2.7
2015-Mar-24 15:33N 55°11' E 014°12'3 2.7
2015-Mar-24 14:33N 55°11' E 014°07'2 1.9
2015-Mar-24 13:33N 55°11' E 014°11'2 1.7
2015-Mar-24 12:13N 55°10' E 014°07'2 2.7
2015-Mar-24 11:33N 55°11' E 014°04'1 0.7
2015-Mar-24 09:31N 55°11' E 014°07'1 1.0
2015-Mar-24 08:34N 55°11' E 014°08'3 2.5
2015-Mar-24 07:31N 55°10' E 014°04'2 2.2
2015-Mar-24 06:33N 55°08' E 014°07'3 2.8
2015-Mar-24 05:30N 55°11' E 014°09'5 5.6
2015-Mar-24 04:32N 55°16' E 014°13'7 7.4
2015-Mar-24 03:32N 55°23' E 014°17'8 7.3
2015-Mar-24 02:25N 55°30' E 014°22'3 3.1
2015-Mar-24 01:28N 55°33' E 014°22'0 0.0
2015-Mar-24 00:22N 55°33' E 014°22'0 0.0
2015-Mar-23 23:28N 55°33' E 014°22'0 0.0
2015-Mar-23 22:28N 55°33' E 014°22'0 0.0
2015-Mar-23 21:28N 55°33' E 014°22'0 0.0
2015-Mar-23 20:28N 55°33' E 014°22'0 0.0
2015-Mar-23 19:22N 55°33' E 014°22'0 0.0
2015-Mar-23 18:22N 55°33' E 014°22'0 0.0
2015-Mar-23 17:28N 55°33' E 014°22'0 0.0
2015-Mar-23 16:28N 55°33' E 014°22'0 0.0
2015-Mar-23 15:28N 55°33' E 014°22'0 0.0
2015-Mar-23 14:28N 55°33' E 014°22'0 0.0
2015-Mar-23 13:04N 55°33' E 014°22'0 0.0
2015-Mar-23 12:28N 55°33' E 014°22'0 0.0
2015-Mar-23 11:28N 55°33' E 014°22'0 0.0
2015-Mar-23 10:28N 55°33' E 014°22'0 0.0
2015-Mar-23 09:26N 55°33' E 014°21'0 0.0
2015-Mar-23 08:32N 55°33' E 014°21'0 0.0
2015-Mar-23 07:26N 55°33' E 014°21'0 0.0
2015-Mar-23 06:26N 55°33' E 014°21'0 0.0
2015-Mar-23 05:12N 55°33' E 014°21'4 5.3
2015-Mar-23 04:30N 55°30' E 014°22'6 6.7
2015-Mar-23 03:33N 55°24' E 014°16'7 6.0
2015-Mar-23 02:25N 55°20' E 014°06'5 6.3
2015-Mar-23 01:33N 55°20' E 013°57'7 3.3
2015-Mar-22 23:31N 55°25' E 013°49'18 2.0
2015-Mar-22 14:32N 55°09' E 014°04'2 1.8
2015-Mar-22 13:23N 55°10' E 014°08'2 2.1
2015-Mar-22 12:32N 55°10' E 014°05'1 1.1
2015-Mar-22 11:33N 55°09' E 014°04'3 2.6
2015-Mar-22 10:32N 55°10' E 014°08'3 2.7
2015-Mar-22 09:33N 55°12' E 014°11'8 7.6
2015-Mar-22 08:33N 55°19' E 014°15'8 7.6
2015-Mar-22 07:31N 55°27' E 014°20'7 7.0
2015-Mar-22 06:32N 55°34' E 014°22'0 0.1
2015-Mar-22 05:28N 55°33' E 014°22'0 0.0
2015-Mar-22 04:22N 55°33' E 014°22'0 0.0
2015-Mar-21 02:23N 55°33' E 014°22'3 0.1
2015-Mar-20 02:27N 55°30' E 014°22'3 3.4
2015-Mar-20 01:30N 55°33' E 014°22'0 0.0
2015-Mar-20 00:24N 55°33' E 014°22'0 0.0
2015-Mar-19 23:30N 55°33' E 014°22'0 0.0
2015-Mar-19 22:30N 55°33' E 014°22'0 0.0
2015-Mar-19 21:24N 55°33' E 014°22'0 0.0
2015-Mar-19 20:24N 55°33' E 014°22'0 0.0
2015-Mar-19 19:32N 55°33' E 014°21'2 1.9
2015-Mar-19 18:30N 55°32' E 014°22'7 7.8
2015-Mar-19 17:33N 55°25' E 014°17'8 8.0
2015-Mar-19 16:33N 55°17' E 014°12'5 4.6
2015-Mar-19 15:23N 55°13' E 014°07'1 0.8
2015-Mar-19 14:31N 55°12' E 014°06'2 1.6
2015-Mar-19 13:32N 55°12' E 014°09'3 2.8
2015-Mar-19 12:33N 55°12' E 014°14'2 2.0
2015-Mar-19 11:33N 55°10' E 014°12'3 2.9
2015-Mar-19 10:33N 55°11' E 014°07'3 2.8
2015-Mar-19 09:32N 55°10' E 014°03'1 0.9
2015-Mar-19 08:31N 55°10' E 014°01'3 2.8
2015-Mar-19 07:32N 55°10' E 014°06'3 2.8
2015-Mar-19 06:33N 55°10' E 014°11'3 2.8
2015-Mar-19 05:32N 55°10' E 014°16'6 6.1
2015-Mar-19 04:33N 55°12' E 014°26'7 7.4
2015-Mar-19 03:33N 55°11' E 014°38'2 1.9
2015-Mar-19 02:27N 55°11' E 014°42'0 0.0
2015-Mar-19 01:21N 55°11' E 014°42'0 0.0
2015-Mar-19 00:33N 55°11' E 014°42'  
Track history (hours):
 
Tides and Currents Weather Stations Pressure Air Temp Water Temp Dewpoint Dewpoint Depression Visibility Wind Speed Wind Dir Waves Ship Positions

Vg 117 Kungsvik

Last reported at 2015-Mar-29 00:30 UTC. Time now 2015-Mar-30 01:00 UTC.
Position N 55°33' E 014°22'.

Length 17 m.

Type: Fishing. MMSI: 266137000.

Date/timePositionNaut miles runAvg speedWind from/ knotsBaromVisibWave heightAir tempDewpointWater temp
2015-Mar-29 00:30N 55°33' E 014°22'0 0.0
2015-Mar-28 22:18N 55°33' E 014°22'0 0.0
2015-Mar-28 20:24N 55°33' E 014°22'0 0.0
2015-Mar-28 19:12N 55°33' E 014°22'0 0.0
2015-Mar-28 17:24N 55°33' E 014°22'0 0.0
2015-Mar-28 16:06N 55°33' E 014°22'0 0.0
2015-Mar-28 14:30N 55°33' E 014°22'0 0.0
2015-Mar-28 10:12N 55°33' E 014°22'0 0.0
2015-Mar-28 09:30N 55°33' E 014°22'0 0.0
2015-Mar-28 08:06N 55°33' E 014°22'0 0.0
2015-Mar-28 07:30N 55°33' E 014°22'0 0.0
2015-Mar-28 05:06N 55°33' E 014°22'0 0.0
2015-Mar-28 04:30N 55°33' E 014°22'0 0.0
2015-Mar-28 03:30N 55°33' E 014°22'0 0.0
2015-Mar-27 01:24N 55°33' E 014°22'0 0.0
2015-Mar-26 23:30N 55°33' E 014°22'0 0.0
2015-Mar-26 22:30N 55°33' E 014°22'0 0.0
2015-Mar-26 21:06N 55°33' E 014°22'0 0.0
2015-Mar-26 20:12N 55°33' E 014°22'0 0.0
2015-Mar-26 18:32N 55°33' E 014°22'0 0.0
2015-Mar-26 17:26N 55°33' E 014°22'0 0.0
2015-Mar-26 16:32N 55°33' E 014°22'0 0.0
2015-Mar-26 15:26N 55°33' E 014°22'0 0.0
2015-Mar-26 14:32N 55°33' E 014°22'0 0.0
2015-Mar-26 13:32N 55°33' E 014°22'0 0.0
2015-Mar-26 11:26N 55°33' E 014°22'0 0.0
2015-Mar-26 10:20N 55°33' E 014°22'0 0.0
2015-Mar-26 08:14N 55°33' E 014°22'0 0.0
2015-Mar-26 07:32N 55°33' E 014°22'0 0.0
2015-Mar-26 05:14N 55°33' E 014°22'0 0.0
2015-Mar-26 04:32N 55°33' E 014°22'0 0.0
2015-Mar-26 03:26N 55°33' E 014°22'0 0.0
2015-Mar-26 02:32N 55°33' E 014°22'0 0.0
2015-Mar-26 01:32N 55°33' E 014°22'0 0.0
2015-Mar-26 00:32N 55°33' E 014°22'0 0.0
2015-Mar-25 22:32N 55°33' E 014°22'0 0.0
2015-Mar-25 21:20N 55°33' E 014°22'0 0.0
2015-Mar-25 20:26N 55°33' E 014°22'0 0.0
2015-Mar-25 19:32N 55°33' E 014°22'0 0.0
2015-Mar-25 17:14N 55°33' E 014°22'0 0.0
2015-Mar-25 16:32N 55°33' E 014°22'0 0.0
2015-Mar-25 15:32N 55°33' E 014°22'0 0.0
2015-Mar-25 13:28N 55°33' E 014°21'2 2.2
2015-Mar-25 12:30N 55°32' E 014°23'5 5.2
2015-Mar-25 11:33N 55°27' E 014°22'7 7.1
2015-Mar-25 10:33N 55°20' E 014°19'7 6.7
2015-Mar-25 09:32N 55°13' E 014°20'2 2.1
2015-Mar-25 08:33N 55°11' E 014°21'3 2.7
2015-Mar-25 07:33N 55°11' E 014°16'0 0.4
2015-Mar-25 06:33N 55°11' E 014°16'3 2.8
2015-Mar-25 05:33N 55°11' E 014°21'4 4.5
2015-Mar-25 04:33N 55°10' E 014°29'7 6.9
2015-Mar-25 03:33N 55°11' E 014°41'1 0.9
2015-Mar-25 02:28N 55°11' E 014°42'0 0.0
2015-Mar-25 01:31N 55°11' E 014°42'0 0.0
2015-Mar-25 00:28N 55°11' E 014°42'0 0.0
2015-Mar-24 23:10N 55°11' E 014°42'0 0.0
2015-Mar-24 22:28N 55°11' E 014°42'0 0.0
2015-Mar-24 21:22N 55°11' E 014°42'0 0.0
2015-Mar-24 20:28N 55°11' E 014°42'2 1.8
2015-Mar-24 19:33N 55°11' E 014°39'6 6.1
2015-Mar-24 18:33N 55°11' E 014°29'6 5.1
2015-Mar-24 17:28N 55°11' E 014°19'1 1.4
2015-Mar-24 16:33N 55°11' E 014°17'3 2.7
2015-Mar-24 15:33N 55°11' E 014°12'3 2.7
2015-Mar-24 14:33N 55°11' E 014°07'2 1.9
2015-Mar-24 13:33N 55°11' E 014°11'2 1.7
2015-Mar-24 12:13N 55°10' E 014°07'2 2.7
2015-Mar-24 11:33N 55°11' E 014°04'1 0.7
2015-Mar-24 09:31N 55°11' E 014°07'1 1.0
2015-Mar-24 08:34N 55°11' E 014°08'3 2.5
2015-Mar-24 07:31N 55°10' E 014°04'2 2.2
2015-Mar-24 06:33N 55°08' E 014°07'3 2.8
2015-Mar-24 05:30N 55°11' E 014°09'5 5.6
2015-Mar-24 04:32N 55°16' E 014°13'7 7.4
2015-Mar-24 03:32N 55°23' E 014°17'8 7.3
2015-Mar-24 02:25N 55°30' E 014°22'3 3.1
2015-Mar-24 01:28N 55°33' E 014°22'0 0.0
2015-Mar-24 00:22N 55°33' E 014°22'0 0.0
2015-Mar-23 23:28N 55°33' E 014°22'0 0.0
2015-Mar-23 22:28N 55°33' E 014°22'0 0.0
2015-Mar-23 21:28N 55°33' E 014°22'0 0.0
2015-Mar-23 20:28N 55°33' E 014°22'0 0.0
2015-Mar-23 19:22N 55°33' E 014°22'0 0.0
2015-Mar-23 18:22N 55°33' E 014°22'0 0.0
2015-Mar-23 17:28N 55°33' E 014°22'0 0.0
2015-Mar-23 16:28N 55°33' E 014°22'0 0.0
2015-Mar-23 15:28N 55°33' E 014°22'0 0.0
2015-Mar-23 14:28N 55°33' E 014°22'0 0.0
2015-Mar-23 13:04N 55°33' E 014°22'0 0.0
2015-Mar-23 12:28N 55°33' E 014°22'0 0.0
2015-Mar-23 11:28N 55°33' E 014°22'0 0.0
2015-Mar-23 10:28N 55°33' E 014°22'0 0.0
2015-Mar-23 09:26N 55°33' E 014°21'0 0.0
2015-Mar-23 08:32N 55°33' E 014°21'0 0.0
2015-Mar-23 07:26N 55°33' E 014°21'0 0.0
2015-Mar-23 06:26N 55°33' E 014°21'0 0.0
2015-Mar-23 05:12N 55°33' E 014°21'4 5.3
2015-Mar-23 04:30N 55°30' E 014°22'6 6.7
2015-Mar-23 03:33N 55°24' E 014°16'7 6.0
2015-Mar-23 02:25N 55°20' E 014°06'5 6.3
2015-Mar-23 01:33N 55°20' E 013°57'7 3.3
2015-Mar-22 23:31N 55°25' E 013°49'18 2.0
2015-Mar-22 14:32N 55°09' E 014°04'2 1.8
2015-Mar-22 13:23N 55°10' E 014°08'2 2.1
2015-Mar-22 12:32N 55°10' E 014°05'1 1.1
2015-Mar-22 11:33N 55°09' E 014°04'3 2.6
2015-Mar-22 10:32N 55°10' E 014°08'3 2.7
2015-Mar-22 09:33N 55°12' E 014°11'8 7.6
2015-Mar-22 08:33N 55°19' E 014°15'8 7.6
2015-Mar-22 07:31N 55°27' E 014°20'7 7.0
2015-Mar-22 06:32N 55°34' E 014°22'0 0.1
2015-Mar-22 05:28N 55°33' E 014°22'0 0.0
2015-Mar-22 04:22N 55°33' E 014°22'0 0.0
2015-Mar-21 02:23N 55°33' E 014°22'3 0.1
2015-Mar-20 02:27N 55°30' E 014°22'3 3.4
2015-Mar-20 01:30N 55°33' E 014°22'0 0.0
2015-Mar-20 00:24N 55°33' E 014°22'0 0.0
2015-Mar-19 23:30N 55°33' E 014°22'0 0.0
2015-Mar-19 22:30N 55°33' E 014°22'0 0.0
2015-Mar-19 21:24N 55°33' E 014°22'0 0.0
2015-Mar-19 20:24N 55°33' E 014°22'0 0.0
2015-Mar-19 19:32N 55°33' E 014°21'2 1.9
2015-Mar-19 18:30N 55°32' E 014°22'7 7.8
2015-Mar-19 17:33N 55°25' E 014°17'8 8.0
2015-Mar-19 16:33N 55°17' E 014°12'5 4.6
2015-Mar-19 15:23N 55°13' E 014°07'1 0.8
2015-Mar-19 14:31N 55°12' E 014°06'2 1.6
2015-Mar-19 13:32N 55°12' E 014°09'3 2.8
2015-Mar-19 12:33N 55°12' E 014°14'2 2.0
2015-Mar-19 11:33N 55°10' E 014°12'3 2.9
2015-Mar-19 10:33N 55°11' E 014°07'3 2.8
2015-Mar-19 09:32N 55°10' E 014°03'1 0.9
2015-Mar-19 08:31N 55°10' E 014°01'3 2.8
2015-Mar-19 07:32N 55°10' E 014°06'3 2.8
2015-Mar-19 06:33N 55°10' E 014°11'3 2.8
2015-Mar-19 05:32N 55°10' E 014°16'6 6.1
2015-Mar-19 04:33N 55°12' E 014°26'7 7.4
2015-Mar-19 03:33N 55°11' E 014°38'2 1.9
2015-Mar-19 02:27N 55°11' E 014°42'0 0.0
2015-Mar-19 01:21N 55°11' E 014°42'0 0.0
2015-Mar-19 00:33N 55°11' E 014°42'  

Dump ship's entire track history